Time;durP1;ratioP1;P1;durP2;ratioP2;P2;SDS_P1;SDS_P2;PMS_P1;PMS_P2;Temp;Humidity;BMP_temperature;BMP_pressure;BME280_temperature;BME280_humidity;BME280_pressure;Samples;Min_cycle;Max_cycle;Signal;HPM_P1;HPM_P2
2023/07/19 00:00:38;;;;;;;8.40;3.17;;;16.10;99.90;;;;;;4963057;28;20201;-58
2023/07/19 00:03:04;;;;;;;5.40;2.50;;;16.10;99.90;;;;;;4968403;28;20027;-55
2023/07/19 00:05:30;;;;;;;10.23;2.92;;;16.00;99.90;;;;;;4963970;28;20034;-58
2023/07/19 00:07:55;;;;;;;6.53;3.08;;;16.10;99.90;;;;;;4962448;28;20019;-57
2023/07/19 00:10:21;;;;;;;16.05;3.60;;;16.00;99.90;;;;;;4965502;28;20676;-58
2023/07/19 00:12:47;;;;;;;5.38;2.92;;;16.00;99.90;;;;;;4970638;28;20030;-57
2023/07/19 00:15:12;;;;;;;9.82;2.88;;;15.90;99.90;;;;;;4965386;28;20431;-53
2023/07/19 00:17:38;;;;;;;10.60;3.63;;;15.80;99.90;;;;;;4964632;28;20019;-56
2023/07/19 00:20:04;;;;;;;4.07;2.60;;;15.80;99.90;;;;;;4959800;28;20023;-59
2023/07/19 00:22:32;;;;;;;8.10;3.28;;;15.80;99.90;;;;;;4967393;28;20023;-59
2023/07/19 00:24:57;;;;;;;18.98;3.40;;;15.80;99.90;;;;;;4968394;28;20027;-60
2023/07/19 00:27:24;;;;;;;14.63;3.75;;;15.70;99.90;;;;;;4970183;28;20413;-58
2023/07/19 00:29:50;;;;;;;10.32;2.58;;;15.80;99.90;;;;;;4969717;28;20829;-57
2023/07/19 00:32:16;;;;;;;10.35;3.40;;;15.70;99.90;;;;;;4967243;28;20035;-60
2023/07/19 00:34:41;;;;;;;12.43;3.15;;;15.70;99.90;;;;;;4959174;28;20034;-59
2023/07/19 00:37:07;;;;;;;9.02;3.25;;;15.60;99.90;;;;;;4961424;28;20019;-59
2023/07/19 00:39:32;;;;;;;6.20;3.10;;;15.50;99.90;;;;;;4962311;28;20030;-57
2023/07/19 00:41:58;;;;;;;7.20;3.10;;;15.50;99.90;;;;;;4970361;28;20027;-55
2023/07/19 00:44:24;;;;;;;7.20;3.05;;;15.50;99.90;;;;;;4969050;28;20039;-59
2023/07/19 00:46:50;;;;;;;9.93;2.58;;;15.50;99.90;;;;;;4964437;28;20521;-59
2023/07/19 00:49:15;;;;;;;11.45;3.65;;;15.40;99.90;;;;;;4962995;28;20107;-59
2023/07/19 00:51:41;;;;;;;6.55;3.08;;;15.40;99.90;;;;;;4966554;28;20496;-53
2023/07/19 00:54:08;;;;;;;11.88;3.17;;;15.40;99.90;;;;;;4970257;28;20038;-58
2023/07/19 00:56:33;;;;;;;6.85;3.50;;;15.40;99.90;;;;;;4969168;28;20022;-58
2023/07/19 00:59:01;;;;;;;10.88;3.63;;;15.40;99.90;;;;;;4969262;28;20042;-59
2023/07/19 01:01:27;;;;;;;8.85;3.17;;;15.40;99.90;;;;;;4962706;28;20027;-60
2023/07/19 01:03:53;;;;;;;6.00;2.72;;;15.40;99.90;;;;;;4969715;28;20080;-59
2023/07/19 01:06:19;;;;;;;5.35;2.50;;;15.40;99.90;;;;;;4962066;28;20066;-59
2023/07/19 01:08:46;;;;;;;5.20;2.53;;;15.40;99.90;;;;;;4961764;28;20396;-59
2023/07/19 01:11:12;;;;;;;8.10;3.22;;;15.40;99.90;;;;;;4968598;28;20038;-57
2023/07/19 01:13:38;;;;;;;6.63;2.83;;;15.40;99.90;;;;;;4971023;28;20401;-56
2023/07/19 01:16:03;;;;;;;10.07;3.00;;;15.30;99.90;;;;;;4970211;28;20033;-59
2023/07/19 01:18:29;;;;;;;13.90;3.00;;;15.30;99.90;;;;;;4965061;28;20102;-59
2023/07/19 01:20:55;;;;;;;12.02;3.58;;;15.30;99.90;;;;;;4967942;28;20031;-58
2023/07/19 01:23:20;;;;;;;8.48;2.70;;;15.30;99.90;;;;;;4965904;28;20034;-58
2023/07/19 01:25:46;;;;;;;11.88;2.92;;;15.20;99.90;;;;;;4966002;28;20030;-59
2023/07/19 01:28:11;;;;;;;7.20;3.05;;;15.20;99.90;;;;;;4962267;28;20035;-59
2023/07/19 01:30:37;;;;;;;5.20;3.20;;;15.20;99.90;;;;;;4966247;28;20031;-59
2023/07/19 01:33:03;;;;;;;8.00;3.55;;;15.20;99.90;;;;;;4964575;28;20492;-59
2023/07/19 01:35:28;;;;;;;8.23;3.17;;;15.00;99.90;;;;;;4961060;28;20413;-59
2023/07/19 01:37:54;;;;;;;6.72;3.67;;;15.00;99.90;;;;;;4966394;28;20027;-54
2023/07/19 01:40:19;;;;;;;10.85;3.28;;;15.00;99.90;;;;;;4969940;28;20123;-58
2023/07/19 01:42:45;;;;;;;9.85;3.30;;;14.90;99.90;;;;;;4969524;28;20106;-57
2023/07/19 01:45:10;;;;;;;9.00;3.10;;;14.90;99.90;;;;;;4964850;28;20042;-59
2023/07/19 01:47:36;;;;;;;7.70;3.00;;;14.90;99.90;;;;;;4966928;28;20027;-60
2023/07/19 01:50:02;;;;;;;7.22;3.25;;;14.90;99.90;;;;;;4963057;28;20031;-60
2023/07/19 01:52:28;;;;;;;15.82;3.53;;;14.80;99.90;;;;;;4970846;28;20142;-59
2023/07/19 01:54:53;;;;;;;7.78;3.20;;;14.80;99.90;;;;;;4968453;28;20121;-59
2023/07/19 01:57:19;;;;;;;7.57;3.80;;;14.80;99.90;;;;;;4971344;28;20497;-59
2023/07/19 01:59:44;;;;;;;7.95;3.58;;;14.80;99.90;;;;;;4963159;28;20110;-58
2023/07/19 02:02:10;;;;;;;8.63;4.32;;;14.70;99.90;;;;;;4968482;28;20041;-58
2023/07/19 02:04:35;;;;;;;8.00;3.58;;;14.70;99.90;;;;;;4969680;28;20022;-60
2023/07/19 02:07:01;;;;;;;9.68;3.20;;;14.60;99.90;;;;;;4972097;28;20066;-59
2023/07/19 02:09:26;;;;;;;12.52;3.67;;;14.60;99.90;;;;;;4966224;28;20105;-58
2023/07/19 02:11:52;;;;;;;15.23;4.10;;;14.60;99.90;;;;;;4969866;28;20050;-59
2023/07/19 02:14:18;;;;;;;11.90;4.45;;;14.50;99.90;;;;;;4962001;28;20452;-57
2023/07/19 02:16:44;;;;;;;8.25;3.65;;;14.60;99.90;;;;;;4972182;28;20023;-57
2023/07/19 02:19:10;;;;;;;9.77;3.28;;;14.60;99.90;;;;;;4963454;28;20029;-57
2023/07/19 02:21:35;;;;;;;10.23;4.05;;;14.50;99.90;;;;;;4965393;28;20027;-58
2023/07/19 02:24:01;;;;;;;13.85;3.92;;;14.50;99.90;;;;;;4964925;28;20043;-57
2023/07/19 02:26:27;;;;;;;6.90;3.95;;;14.40;99.90;;;;;;4968892;28;20035;-57
2023/07/19 02:28:52;;;;;;;7.97;3.67;;;14.30;99.90;;;;;;4961635;28;20031;-57
2023/07/19 02:31:18;;;;;;;8.43;3.55;;;14.40;99.90;;;;;;4964668;28;20038;-57
2023/07/19 02:33:43;;;;;;;10.65;4.13;;;14.40;99.90;;;;;;4963791;28;20038;-60
2023/07/19 02:36:11;;;;;;;14.82;3.80;;;14.40;99.90;;;;;;4960993;28;20027;-59
2023/07/19 02:38:36;;;;;;;10.98;4.10;;;14.30;99.90;;;;;;4962476;28;20595;-60
2023/07/19 02:41:02;;;;;;;7.97;3.28;;;14.30;99.90;;;;;;4958860;28;20027;-59
2023/07/19 02:43:28;;;;;;;11.50;3.80;;;14.30;99.90;;;;;;4959231;28;20458;-61
2023/07/19 02:45:55;;;;;;;11.13;3.53;;;14.30;99.90;;;;;;4966287;28;20524;-59
2023/07/19 02:48:21;;;;;;;11.18;3.88;;;14.20;99.90;;;;;;4965940;28;20436;-59
2023/07/19 02:50:48;;;;;;;9.23;3.47;;;14.20;99.90;;;;;;4967000;28;20030;-58
2023/07/19 02:53:14;;;;;;;9.27;4.15;;;14.20;99.90;;;;;;4963890;28;20405;-60
2023/07/19 02:55:42;;;;;;;8.48;4.22;;;14.20;99.90;;;;;;4965500;28;20027;-60
2023/07/19 02:58:07;;;;;;;10.05;4.22;;;14.20;99.90;;;;;;4963265;28;20401;-61
2023/07/19 03:00:33;;;;;;;12.32;3.80;;;14.20;99.90;;;;;;4967175;28;20027;-57
2023/07/19 03:02:58;;;;;;;11.35;4.00;;;14.20;99.90;;;;;;4966727;28;20043;-59
2023/07/19 03:05:24;;;;;;;10.00;3.85;;;14.20;99.90;;;;;;4967889;28;20031;-60
2023/07/19 03:07:50;;;;;;;7.90;3.83;;;14.20;99.90;;;;;;4966054;28;20026;-59
2023/07/19 03:10:16;;;;;;;11.07;3.45;;;14.30;99.90;;;;;;4963831;28;20596;-60
2023/07/19 03:12:42;;;;;;;12.02;4.32;;;14.30;99.90;;;;;;4961557;28;20031;-60
2023/07/19 03:15:08;;;;;;;11.60;3.75;;;14.30;99.90;;;;;;4962473;28;20023;-60
2023/07/19 03:17:33;;;;;;;13.52;3.70;;;14.30;99.90;;;;;;4962196;28;20030;-59
2023/07/19 03:19:59;;;;;;;10.30;4.38;;;14.30;99.90;;;;;;4961771;28;20095;-60
2023/07/19 03:22:24;;;;;;;10.55;3.92;;;14.30;99.90;;;;;;4962572;28;20541;-60
2023/07/19 03:24:50;;;;;;;9.95;4.00;;;14.40;99.90;;;;;;4964772;28;20452;-56
2023/07/19 03:27:16;;;;;;;8.55;3.72;;;14.40;99.90;;;;;;4961708;28;20433;-59
2023/07/19 03:29:41;;;;;;;7.43;3.20;;;14.40;99.90;;;;;;4964515;28;20027;-60
2023/07/19 03:32:07;;;;;;;10.88;4.43;;;14.40;99.90;;;;;;4959572;28;20111;-58
2023/07/19 03:34:34;;;;;;;8.38;4.07;;;14.50;99.90;;;;;;4959176;28;20098;-59
2023/07/19 03:37:00;;;;;;;9.07;3.45;;;14.50;99.90;;;;;;4964107;28;20113;-59
2023/07/19 03:39:26;;;;;;;15.38;4.07;;;14.40;99.90;;;;;;4959760;28;20055;-57
2023/07/19 03:41:51;;;;;;;8.98;3.95;;;14.40;99.90;;;;;;4963640;28;20051;-57
2023/07/19 03:44:17;;;;;;;7.32;3.40;;;14.50;99.90;;;;;;4961429;28;20039;-58
2023/07/19 03:46:44;;;;;;;15.02;3.80;;;14.50;99.90;;;;;;4965064;28;20060;-57
2023/07/19 03:49:10;;;;;;;6.93;3.38;;;14.50;99.90;;;;;;4963980;28;20023;-57
2023/07/19 03:51:35;;;;;;;4.80;3.17;;;14.50;99.90;;;;;;4960542;28;20038;-58
2023/07/19 03:54:01;;;;;;;8.07;4.10;;;14.50;99.90;;;;;;4961828;28;20035;-57
2023/07/19 03:56:26;;;;;;;7.50;3.72;;;14.50;99.90;;;;;;4958888;28;20023;-59
2023/07/19 03:58:52;;;;;;;16.70;3.42;;;14.50;99.90;;;;;;4964353;28;20135;-58
2023/07/19 04:01:17;;;;;;;10.57;3.58;;;14.60;99.90;;;;;;4964851;28;20547;-58
2023/07/19 04:03:43;;;;;;;10.40;4.25;;;14.70;99.90;;;;;;4966157;28;20131;-59
2023/07/19 04:06:09;;;;;;;9.50;4.07;;;14.70;99.90;;;;;;4968470;28;20027;-60
2023/07/19 04:08:34;;;;;;;8.70;3.40;;;14.80;99.90;;;;;;4962379;28;20034;-59
2023/07/19 04:11:00;;;;;;;9.57;3.60;;;14.80;99.90;;;;;;4962034;28;20415;-60
2023/07/19 04:13:26;;;;;;;9.93;3.33;;;14.80;99.90;;;;;;4960150;28;20058;-59
2023/07/19 04:15:52;;;;;;;14.20;3.33;;;14.80;99.90;;;;;;4962226;28;20634;-59
2023/07/19 04:18:18;;;;;;;9.15;4.18;;;14.80;99.90;;;;;;4963908;28;20038;-58
2023/07/19 04:20:43;;;;;;;11.05;3.60;;;14.80;99.90;;;;;;4970093;28;20063;-57
2023/07/19 04:23:09;;;;;;;8.80;3.78;;;14.70;99.90;;;;;;4968690;28;20122;-59
2023/07/19 04:25:34;;;;;;;5.28;3.65;;;14.80;99.90;;;;;;4967749;28;20077;-59
2023/07/19 04:28:00;;;;;;;8.70;3.28;;;14.80;99.90;;;;;;4967883;28;20421;-58
2023/07/19 04:30:25;;;;;;;8.75;3.65;;;14.90;99.90;;;;;;4972453;28;20045;-58
2023/07/19 04:32:54;;;;;;;8.50;3.55;;;15.00;99.90;;;;;;4970024;28;20432;-58
2023/07/19 04:35:24;;;;;;;10.10;3.42;;;15.10;99.90;;;;;;4964754;28;20089;-54
2023/07/19 04:37:50;;;;;;;9.30;3.10;;;15.20;99.90;;;;;;4965902;28;20018;-58
2023/07/19 04:40:16;;;;;;;9.32;3.35;;;15.30;99.90;;;;;;4968126;28;20525;-60
2023/07/19 04:42:42;;;;;;;5.97;3.03;;;15.40;99.90;;;;;;4970294;28;20531;-59
2023/07/19 04:45:08;;;;;;;7.63;3.67;;;15.40;99.90;;;;;;4968515;28;20035;-56
2023/07/19 04:47:37;;;;;;;13.32;4.18;;;15.50;99.90;;;;;;4962987;28;20030;-58
2023/07/19 04:50:08;;;;;;;6.57;3.67;;;15.50;99.90;;;;;;4967172;28;20027;-55
2023/07/19 04:52:34;;;;;;;7.07;3.47;;;15.50;99.90;;;;;;4965861;28;20018;-58
2023/07/19 04:55:02;;;;;;;6.28;3.22;;;15.60;99.90;;;;;;4968781;28;20209;-55
2023/07/19 04:57:27;;;;;;;9.77;3.60;;;15.70;99.90;;;;;;4971811;28;20612;-54
2023/07/19 04:59:53;;;;;;;10.10;4.30;;;15.70;99.90;;;;;;4968216;28;20105;-54
2023/07/19 05:02:19;;;;;;;15.02;3.22;;;15.80;99.90;;;;;;4962867;28;20162;-56
2023/07/19 05:04:44;;;;;;;8.98;3.63;;;15.90;99.90;;;;;;4970762;28;20026;-56
2023/07/19 05:07:10;;;;;;;9.80;4.15;;;16.00;99.90;;;;;;4971160;28;20050;-59
2023/07/19 05:09:35;;;;;;;10.60;4.35;;;16.10;99.90;;;;;;4966009;28;20042;-58
2023/07/19 05:12:01;;;;;;;14.95;3.42;;;16.20;99.90;;;;;;4971364;28;20035;-60
2023/07/19 05:14:27;;;;;;;13.57;3.72;;;16.40;99.90;;;;;;4972405;28;20074;-59
2023/07/19 05:16:52;;;;;;;14.35;6.43;;;16.50;99.90;;;;;;4969774;28;20016;-58
2023/07/19 05:19:18;;;;;;;13.07;4.75;;;16.60;99.90;;;;;;4968221;28;20485;-58
2023/07/19 05:21:43;;;;;;;14.15;4.65;;;16.70;99.90;;;;;;4982830;28;20061;-59
2023/07/19 05:24:09;;;;;;;10.68;3.97;;;16.70;99.90;;;;;;4970463;28;20130;-57
2023/07/19 05:26:34;;;;;;;10.18;5.22;;;16.80;99.90;;;;;;4964405;28;20035;-57
2023/07/19 05:29:00;;;;;;;10.90;4.18;;;16.90;99.90;;;;;;4969885;28;20572;-59
2023/07/19 05:31:25;;;;;;;11.65;4.15;;;17.00;99.90;;;;;;4968716;28;20113;-58
2023/07/19 05:33:51;;;;;;;10.90;4.35;;;17.00;99.90;;;;;;4965935;28;20027;-58
2023/07/19 05:36:16;;;;;;;10.05;3.97;;;17.10;99.90;;;;;;4965396;28;20774;-57
2023/07/19 05:38:42;;;;;;;11.75;4.55;;;17.10;99.90;;;;;;4967566;28;20027;-60
2023/07/19 05:41:08;;;;;;;9.60;4.25;;;17.20;99.90;;;;;;4966355;28;20027;-58
2023/07/19 05:43:33;;;;;;;7.05;3.47;;;17.20;99.90;;;;;;4967897;28;20531;-59
2023/07/19 05:46:06;;;;;;;10.35;3.53;;;17.30;99.90;;;;;;4965642;28;20580;-57
2023/07/19 05:48:32;;;;;;;11.68;3.95;;;17.40;99.90;;;;;;4968224;28;20022;-54
2023/07/19 05:50:59;;;;;;;8.27;4.10;;;17.40;99.90;;;;;;4967438;28;20031;-58
2023/07/19 05:53:25;;;;;;;14.88;4.10;;;17.40;99.90;;;;;;4969209;28;20039;-60
2023/07/19 05:55:52;;;;;;;6.65;2.85;;;17.50;99.90;;;;;;4969576;28;20441;-60
2023/07/19 05:58:18;;;;;;;13.95;3.90;;;17.60;99.90;;;;;;4969554;28;20596;-58
2023/07/19 06:00:44;;;;;;;9.02;3.63;;;17.50;99.90;;;;;;4968181;28;20559;-59
2023/07/19 06:03:10;;;;;;;9.85;3.50;;;17.60;99.90;;;;;;4963859;28;20018;-58
2023/07/19 06:05:35;;;;;;;6.15;3.42;;;17.60;99.90;;;;;;4968513;28;20050;-59
2023/07/19 06:08:01;;;;;;;8.60;3.63;;;17.70;99.90;;;;;;4963810;28;20037;-57
2023/07/19 06:10:27;;;;;;;9.05;3.38;;;17.80;99.90;;;;;;4965467;28;20576;-58
2023/07/19 06:12:53;;;;;;;9.82;3.25;;;17.90;99.90;;;;;;4970061;28;20026;-60
2023/07/19 06:15:19;;;;;;;9.15;3.67;;;17.90;99.90;;;;;;4970567;28;20023;-61
2023/07/19 06:17:44;;;;;;;12.20;3.10;;;18.00;99.90;;;;;;4967067;28;20046;-61
2023/07/19 06:20:10;;;;;;;10.40;3.95;;;18.10;99.90;;;;;;4972242;28;20047;-58
2023/07/19 06:22:36;;;;;;;7.32;3.65;;;18.10;99.90;;;;;;4964631;28;20015;-56
2023/07/19 06:25:02;;;;;;;8.60;3.13;;;18.10;99.90;;;;;;4968938;28;20921;-59
2023/07/19 06:27:27;;;;;;;27.15;5.85;;;18.20;99.90;;;;;;4969147;28;20046;-55
2023/07/19 06:29:54;;;;;;;15.13;4.35;;;18.30;99.90;;;;;;4973616;28;20414;-58
2023/07/19 06:32:20;;;;;;;9.05;3.78;;;18.30;99.90;;;;;;4969950;28;20022;-58
2023/07/19 06:34:46;;;;;;;9.45;3.70;;;18.40;99.90;;;;;;4967108;28;21217;-61
2023/07/19 06:37:11;;;;;;;8.70;3.10;;;18.40;99.90;;;;;;4972695;28;20035;-60
2023/07/19 06:39:37;;;;;;;10.63;3.35;;;18.30;99.90;;;;;;4964468;28;20106;-59
2023/07/19 06:42:02;;;;;;;9.43;4.00;;;18.40;99.90;;;;;;4968816;28;20078;-60
2023/07/19 06:44:28;;;;;;;10.43;3.38;;;18.40;99.90;;;;;;4968496;28;20058;-59
2023/07/19 06:46:54;;;;;;;12.00;3.88;;;18.40;99.90;;;;;;4968299;28;20035;-59
2023/07/19 06:49:20;;;;;;;11.45;4.07;;;18.40;99.90;;;;;;4970620;28;20034;-57
2023/07/19 06:51:45;;;;;;;7.38;3.65;;;18.40;99.90;;;;;;4968979;28;20034;-60
2023/07/19 06:54:11;;;;;;;8.80;3.15;;;18.50;99.90;;;;;;4973513;28;20030;-60
2023/07/19 06:56:37;;;;;;;8.65;3.33;;;18.60;99.90;;;;;;4966495;28;20041;-59
2023/07/19 06:59:02;;;;;;;7.28;3.55;;;18.70;99.90;;;;;;4969847;28;20031;-59
2023/07/19 07:01:28;;;;;;;14.98;3.85;;;18.80;99.90;;;;;;4967418;28;20676;-60
2023/07/19 07:03:53;;;;;;;11.82;3.92;;;18.90;99.90;;;;;;4967435;28;20058;-60
2023/07/19 07:06:19;;;;;;;14.68;3.97;;;19.10;99.90;;;;;;4969953;28;20528;-59
2023/07/19 07:08:44;;;;;;;8.32;3.95;;;19.10;99.90;;;;;;4968160;28;20520;-57
2023/07/19 07:11:10;;;;;;;8.93;3.75;;;19.20;99.90;;;;;;4967198;28;20023;-60
2023/07/19 07:13:36;;;;;;;16.00;4.30;;;19.30;99.90;;;;;;4968547;28;20041;-58
2023/07/19 07:16:02;;;;;;;11.35;3.25;;;19.30;99.90;;;;;;4963715;28;20027;-60
2023/07/19 07:18:28;;;;;;;10.32;4.20;;;19.30;99.90;;;;;;4970530;28;20022;-57
2023/07/19 07:20:53;;;;;;;13.63;3.50;;;19.30;99.90;;;;;;4966656;28;20031;-59
2023/07/19 07:23:19;;;;;;;14.40;4.05;;;19.30;99.90;;;;;;4968325;28;20417;-60
2023/07/19 07:25:44;;;;;;;10.50;3.63;;;19.30;99.90;;;;;;4968522;28;20353;-60
2023/07/19 07:28:10;;;;;;;12.32;4.05;;;19.30;99.90;;;;;;4967573;28;20045;-59
2023/07/19 07:30:36;;;;;;;7.65;3.35;;;19.40;99.90;;;;;;4967932;28;20041;-59
2023/07/19 07:33:03;;;;;;;9.85;3.30;;;19.50;99.90;;;;;;4967046;28;20089;-57
2023/07/19 07:35:29;;;;;;;8.30;3.75;;;19.60;99.90;;;;;;4968338;28;20038;-60
2023/07/19 07:37:54;;;;;;;7.72;3.67;;;19.80;99.90;;;;;;4968376;28;20019;-59
2023/07/19 07:40:20;;;;;;;19.77;3.70;;;19.90;99.90;;;;;;4968534;28;20031;-59
2023/07/19 07:42:46;;;;;;;9.48;3.20;;;20.00;99.90;;;;;;4968709;28;20021;-57
2023/07/19 07:45:12;;;;;;;7.32;3.50;;;20.10;99.90;;;;;;4968148;28;20077;-59
2023/07/19 07:47:38;;;;;;;11.77;4.03;;;20.20;99.90;;;;;;4967964;28;20400;-57
2023/07/19 07:50:04;;;;;;;12.07;3.50;;;20.30;99.90;;;;;;4967666;28;20041;-55
2023/07/19 07:52:30;;;;;;;11.55;3.72;;;20.30;99.90;;;;;;4965718;28;20027;-57
2023/07/19 07:54:56;;;;;;;15.73;3.97;;;20.40;99.90;;;;;;4968000;28;20114;-57
2023/07/19 07:57:21;;;;;;;10.27;3.60;;;20.40;99.90;;;;;;4966320;28;20169;-59
2023/07/19 07:59:47;;;;;;;13.43;4.20;;;20.20;99.90;;;;;;4964986;28;20035;-58
2023/07/19 08:02:12;;;;;;;12.52;3.60;;;20.40;99.90;;;;;;4968145;28;20031;-59
2023/07/19 08:04:38;;;;;;;12.07;3.90;;;20.50;99.90;;;;;;4967882;28;20110;-60
2023/07/19 08:07:04;;;;;;;11.10;3.30;;;20.60;99.90;;;;;;4969334;28;20031;-60
2023/07/19 08:09:29;;;;;;;16.88;3.75;;;20.60;99.90;;;;;;4967804;28;20396;-56
2023/07/19 08:11:55;;;;;;;14.77;3.90;;;20.70;99.90;;;;;;4968786;28;20038;-57
2023/07/19 08:14:20;;;;;;;14.93;3.80;;;20.80;99.90;;;;;;4968041;28;20070;-58
2023/07/19 08:16:49;;;;;;;13.10;4.07;;;20.70;99.90;;;;;;4967172;28;20050;-55
2023/07/19 08:19:14;;;;;;;10.60;3.13;;;20.70;99.90;;;;;;4967126;28;20046;-57
2023/07/19 08:21:40;;;;;;;12.43;3.92;;;20.90;99.90;;;;;;4968911;28;20052;-58
2023/07/19 08:24:05;;;;;;;10.73;3.42;;;21.10;99.90;;;;;;4968066;28;20031;-59
2023/07/19 08:26:31;;;;;;;10.18;3.38;;;21.10;99.90;;;;;;4968188;28;20030;-56
2023/07/19 08:28:57;;;;;;;9.50;3.60;;;21.10;99.90;;;;;;4968057;28;20034;-59
2023/07/19 08:31:23;;;;;;;13.77;2.95;;;21.10;99.90;;;;;;4969027;28;20031;-57
2023/07/19 08:33:49;;;;;;;13.30;3.75;;;21.10;99.90;;;;;;4966921;28;20058;-54
2023/07/19 08:36:14;;;;;;;7.78;2.90;;;21.20;99.90;;;;;;4964644;28;20069;-57
2023/07/19 08:38:40;;;;;;;12.18;3.40;;;21.30;99.90;;;;;;4968334;28;20447;-61
2023/07/19 08:41:06;;;;;;;8.68;3.22;;;21.30;99.90;;;;;;4967330;28;20019;-59
2023/07/19 08:43:34;;;;;;;7.47;2.92;;;21.40;99.90;;;;;;4965371;28;20150;-61
2023/07/19 08:46:00;;;;;;;10.63;2.83;;;21.40;99.90;;;;;;4970203;28;20381;-59
2023/07/19 08:48:26;;;;;;;11.30;3.35;;;21.50;99.90;;;;;;4969689;28;20543;-59
2023/07/19 08:50:56;;;;;;;10.52;3.60;;;21.60;99.90;;;;;;4966746;28;20062;-60
2023/07/19 08:53:23;;;;;;;10.40;3.15;;;21.70;99.90;;;;;;4966034;28;20543;-59
2023/07/19 08:55:50;;;;;;;12.43;3.20;;;21.80;99.90;;;;;;4965842;28;20055;-59
2023/07/19 08:58:19;;;;;;;7.47;3.28;;;21.90;99.90;;;;;;4965721;28;20520;-55
2023/07/19 09:00:49;;;;;;;9.77;2.63;;;22.00;99.90;;;;;;4966834;28;20042;-59
2023/07/19 09:03:16;;;;;;;6.78;2.55;;;22.00;99.90;;;;;;4971034;28;20031;-56
2023/07/19 09:05:43;;;;;;;10.45;2.50;;;22.00;99.90;;;;;;4966744;28;20026;-60
2023/07/19 09:08:09;;;;;;;9.48;2.65;;;22.10;99.90;;;;;;4967340;28;20393;-59
2023/07/19 09:10:35;;;;;;;9.90;2.58;;;22.30;99.90;;;;;;4970040;28;20031;-56
2023/07/19 09:13:06;;;;;;;10.77;2.45;;;22.30;99.90;;;;;;4963817;28;20503;-59
2023/07/19 09:15:37;;;;;;;12.85;2.67;;;22.10;99.90;;;;;;4969937;28;20492;-58
2023/07/19 09:18:04;;;;;;;6.22;3.40;;;22.00;99.90;;;;;;4962168;28;20166;-57
2023/07/19 09:20:30;;;;;;;10.40;3.47;;;21.90;99.90;;;;;;4967991;28;20022;-57
2023/07/19 09:22:57;;;;;;;8.50;2.97;;;21.70;99.90;;;;;;4964336;28;20082;-55
2023/07/19 09:25:23;;;;;;;17.58;3.70;;;21.70;99.90;;;;;;4968179;28;20019;-58
2023/07/19 09:27:51;;;;;;;8.38;2.90;;;21.80;99.90;;;;;;4963672;28;20046;-59
2023/07/19 09:30:16;;;;;;;7.18;3.05;;;21.60;99.90;;;;;;4967462;28;20039;-57
2023/07/19 09:32:42;;;;;;;11.43;2.83;;;21.40;99.90;;;;;;4966768;28;20413;-58
2023/07/19 09:35:09;;;;;;;11.75;3.50;;;21.40;99.90;;;;;;4965632;28;20488;-57
2023/07/19 09:37:35;;;;;;;18.83;3.90;;;21.60;99.90;;;;;;4969698;28;20037;-59
2023/07/19 09:40:04;;;;;;;6.60;2.60;;;21.80;99.90;;;;;;4969711;28;20023;-58
2023/07/19 09:42:32;;;;;;;12.07;3.53;;;22.10;99.90;;;;;;4966522;28;20587;-57
2023/07/19 09:45:00;;;;;;;8.68;2.83;;;21.90;99.90;;;;;;4966843;28;20051;-56
2023/07/19 09:47:26;;;;;;;10.27;2.90;;;21.90;99.90;;;;;;4968735;28;20030;-58
2023/07/19 09:49:53;;;;;;;10.98;3.03;;;22.10;99.90;;;;;;4962197;28;20122;-58
2023/07/19 09:52:19;;;;;;;25.65;4.13;;;22.10;99.90;;;;;;4961224;28;20485;-57
2023/07/19 09:54:45;;;;;;;12.85;2.95;;;22.20;99.90;;;;;;4966336;28;20030;-59
2023/07/19 09:57:11;;;;;;;11.75;3.58;;;22.20;99.90;;;;;;4964362;28;20023;-59
2023/07/19 09:59:47;;;;;;;17.30;3.13;;;22.30;99.90;;;;;;4970965;28;20481;-60
2023/07/19 10:02:13;;;;;;;9.38;3.67;;;22.30;99.90;;;;;;4966249;28;20105;-57
2023/07/19 10:04:42;;;;;;;9.40;3.90;;;22.50;99.90;;;;;;4961378;28;20113;-56
2023/07/19 10:07:12;;;;;;;12.23;3.30;;;22.60;99.90;;;;;;4962724;28;20037;-57
2023/07/19 10:09:43;;;;;;;7.75;3.53;;;22.70;99.90;;;;;;4967257;28;20096;-57
2023/07/19 10:12:17;;;;;;;11.05;3.72;;;22.80;99.90;;;;;;4963864;28;20037;-54
2023/07/19 10:15:02;;;;;;;12.40;3.30;;;22.50;99.90;;;;;;4964015;28;20085;-58
2023/07/19 10:17:32;;;;;;;7.07;3.10;;;22.60;99.90;;;;;;4966905;28;20102;-59
2023/07/19 10:20:05;;;;;;;6.95;3.00;;;22.70;99.90;;;;;;4964877;28;20099;-58
2023/07/19 10:22:53;;;;;;;6.90;3.08;;;22.60;99.90;;;;;;4966962;28;20609;-59
2023/07/19 10:25:31;;;;;;;9.63;2.35;;;22.40;99.90;;;;;;4963496;28;20038;-58
2023/07/19 10:27:57;;;;;;;6.80;2.90;;;22.60;99.90;;;;;;4964449;28;20485;-59
2023/07/19 10:30:46;;;;;;;7.32;2.63;;;22.90;99.90;;;;;;4969830;28;20042;-56
2023/07/19 10:33:12;;;;;;;10.15;2.65;;;23.10;99.90;;;;;;4956945;28;20031;-59
2023/07/19 10:35:38;;;;;;;9.90;3.40;;;23.20;99.90;;;;;;4970791;28;20102;-56
2023/07/19 10:38:04;;;;;;;9.98;2.97;;;23.10;99.90;;;;;;4963609;28;20090;-55
2023/07/19 10:40:30;;;;;;;8.98;3.28;;;23.00;99.90;;;;;;4965620;28;20046;-58
2023/07/19 10:42:55;;;;;;;8.63;2.92;;;22.90;99.90;;;;;;4966215;28;20039;-56
2023/07/19 10:45:25;;;;;;;9.93;2.38;;;22.80;99.90;;;;;;4970354;28;20485;-60
2023/07/19 10:47:50;;;;;;;5.85;2.33;;;22.90;99.90;;;;;;4962243;28;20024;-60
2023/07/19 10:50:17;;;;;;;7.28;2.47;;;23.10;99.90;;;;;;4966919;28;20445;-57
2023/07/19 10:52:46;;;;;;;5.53;2.45;;;23.30;99.90;;;;;;4966899;28;20023;-59
2023/07/19 10:55:12;;;;;;;9.50;2.85;;;23.30;99.90;;;;;;4964741;28;20042;-58
2023/07/19 10:57:38;;;;;;;9.23;2.88;;;23.30;99.90;;;;;;4959294;28;20026;-59
2023/07/19 11:00:10;;;;;;;11.75;2.97;;;23.40;99.90;;;;;;4962638;28;20035;-60
2023/07/19 11:02:36;;;;;;;11.50;3.60;;;23.80;99.90;;;;;;4965083;28;20019;-60
2023/07/19 11:05:02;;;;;;;13.10;3.13;;;23.90;99.90;;;;;;4959925;28;20043;-58
2023/07/19 11:07:33;;;;;;;11.80;3.17;;;24.10;99.90;;;;;;4962691;28;20038;-57
2023/07/19 11:10:00;;;;;;;7.45;2.83;;;24.20;99.90;;;;;;4968695;28;20039;-59
2023/07/19 11:12:26;;;;;;;4.72;2.70;;;24.20;99.90;;;;;;4966378;28;20106;-59
2023/07/19 11:14:58;;;;;;;6.63;3.15;;;24.10;99.90;;;;;;4970562;28;20041;-58
2023/07/19 11:17:34;;;;;;;7.95;2.63;;;24.20;99.90;;;;;;4965350;28;20105;-59
2023/07/19 11:20:00;;;;;;;8.60;2.20;;;24.50;99.90;;;;;;4967837;28;20037;-59
2023/07/19 11:22:27;;;;;;;8.18;2.30;;;25.20;99.90;;;;;;4968451;28;20023;-59
2023/07/19 11:24:54;;;;;;;9.82;2.33;;;25.30;99.90;;;;;;4974150;28;20105;-60
2023/07/19 11:27:32;;;;;;;6.03;2.75;;;25.20;99.90;;;;;;4969010;28;20026;-59
2023/07/19 11:29:57;;;;;;;10.98;3.13;;;25.00;99.90;;;;;;4966875;28;20072;-59
2023/07/19 11:32:23;;;;;;;13.65;3.08;;;24.80;99.90;;;;;;4962977;28;20523;-60
2023/07/19 11:34:51;;;;;;;10.43;2.75;;;24.50;99.90;;;;;;4967194;28;20027;-60
2023/07/19 11:37:24;;;;;;;6.78;2.88;;;24.60;99.90;;;;;;4970160;28;20536;-56
2023/07/19 11:39:51;;;;;;;7.32;2.85;;;24.40;99.90;;;;;;4969502;28;20062;-60
2023/07/19 11:42:59;;;;;;;9.70;3.45;;;24.20;99.90;;;;;;4971718;28;20022;-60
2023/07/19 11:45:27;;;;;;;10.07;2.60;;;24.10;99.90;;;;;;4964240;28;20046;-58
2023/07/19 11:48:01;;;;;;;6.53;2.33;;;24.20;99.90;;;;;;4972298;28;20102;-55
2023/07/19 11:50:26;;;;;;;9.23;2.92;;;24.70;99.90;;;;;;4966108;28;20030;-59
2023/07/19 11:53:01;;;;;;;6.50;2.67;;;25.10;99.90;;;;;;4967979;28;20042;-59
2023/07/19 11:55:29;;;;;;;14.63;3.08;;;25.60;99.90;;;;;;4961163;28;20026;-56
2023/07/19 11:58:02;;;;;;;12.95;3.30;;;25.80;99.90;;;;;;4971115;28;20023;-57
2023/07/19 12:00:29;;;;;;;7.60;2.67;;;25.80;99.90;;;;;;4963265;28;20401;-55
2023/07/19 12:02:55;;;;;;;5.80;2.67;;;26.00;99.90;;;;;;4968360;28;20019;-57
2023/07/19 12:05:23;;;;;;;7.85;3.13;;;26.00;99.90;;;;;;4965764;28;20042;-60
2023/07/19 12:07:52;;;;;;;6.70;3.05;;;25.90;99.90;;;;;;4970094;28;20628;-60
2023/07/19 12:10:19;;;;;;;9.07;3.78;;;25.50;99.90;;;;;;4961645;28;20035;-59
2023/07/19 12:12:46;;;;;;;10.50;2.85;;;25.10;99.90;;;;;;4969957;28;20097;-60
2023/07/19 12:15:12;;;;;;;12.95;3.17;;;24.70;99.90;;;;;;4972814;28;20101;-59
2023/07/19 12:17:38;;;;;;;9.43;2.30;;;24.60;99.90;;;;;;4969625;28;20477;-56
2023/07/19 12:20:06;;;;;;;11.63;2.65;;;24.90;99.90;;;;;;4971802;28;20030;-60
2023/07/19 12:22:32;;;;;;;9.30;2.90;;;25.10;99.90;;;;;;4970527;28;20038;-61
2023/07/19 12:24:58;;;;;;;8.27;2.35;;;25.20;99.90;;;;;;4972034;28;20070;-61
2023/07/19 12:27:24;;;;;;;7.93;1.90;;;25.40;99.90;;;;;;4966558;28;20690;-61
2023/07/19 12:29:50;;;;;;;6.35;2.03;;;25.30;99.90;;;;;;4968325;28;20393;-60
2023/07/19 12:32:16;;;;;;;7.63;1.98;;;25.00;99.90;;;;;;4967545;28;20035;-60
2023/07/19 12:34:43;;;;;;;5.90;2.05;;;24.90;99.90;;;;;;4963445;28;20616;-59
2023/07/19 12:37:09;;;;;;;11.45;2.42;;;24.90;99.90;;;;;;4968691;28;20093;-58
2023/07/19 12:39:36;;;;;;;6.63;2.10;;;25.00;99.90;;;;;;4971643;28;20106;-58